^^
Saratoga-Weather Station Historical Data
Daily Summary for July 25, 2021 Units:  English    Metric   Both
Daily Weekly Monthly Yearly Custom
  High: Low: Average:
Temperature: 61.3 °F 56.8 °F 58.8 °F
Dew Point: 60.3 °F 55.9 °F 57.7 °F
Humidity: 97% 96% 97%
Wind Speed: 2mph 0mph 0.1mph
Wind Gust: 2mph - -
Wind- - SSW
Pressure: 29.8 in 29.8 in -
Precipitation: 0 in    
Historical Graphs
 
 
Tabular Data for July 25, 2021
Time Temperature Dew Point Pressure Wind Wind Speed Wind Gust Humidity Rainfall Rate (Hourly) solar
00:04 61.2 °F 60.1 °F 29.8 in Calm   1 mph 96% 0 in 0 W/m2
00:09 61.3 °F 60.3 °F 29.8 in Calm     96% 0 in 0 W/m2
00:14 61.3 °F 60.3 °F 29.8 in Calm     96% 0 in 0 W/m2
00:19 61.3 °F 60.3 °F 29.8 in SW 0.9 mph 1 mph 96% 0 in 0 W/m2
00:24 61.3 °F 60.3 °F 29.8 in SW 0.9 mph 1 mph 96% 0 in 0 W/m2
00:29 61.3 °F 60.3 °F 29.8 in Calm     96% 0 in 0 W/m2
00:34 61.2 °F 60.1 °F 29.8 in SSW 0.9 mph 2 mph 96% 0 in 0 W/m2
00:39 61.2 °F 60.1 °F 29.8 in Calm   1 mph 96% 0 in 0 W/m2
00:44 61 °F 59.9 °F 29.8 in Calm   2 mph 96% 0 in 0 W/m2
00:49 60.8 °F 59.7 °F 29.8 in Calm     96% 0 in 0 W/m2
00:54 60.6 °F 59.5 °F 29.8 in Calm     96% 0 in 0 W/m2
00:59 60.4 °F 59.4 °F 29.8 in Calm     96% 0 in 0 W/m2
01:04 60.3 °F 59.2 °F 29.8 in Calm   1 mph 96% 0 in 0 W/m2
01:09 60.1 °F 59 °F 29.8 in SSW 0.9 mph 1 mph 96% 0 in 0 W/m2
01:14 60.1 °F 59 °F 29.8 in SSW 0.9 mph 2 mph 96% 0 in 0 W/m2
01:19 60.1 °F 59 °F 29.8 in SSW 0.9 mph 1 mph 96% 0 in 0 W/m2
01:24 59.9 °F 58.8 °F 29.8 in Calm     96% 0 in 0 W/m2
01:29 59.7 °F 58.6 °F 29.8 in Calm     96% 0 in 0 W/m2
01:34 59.7 °F 58.6 °F 29.8 in Calm     96% 0 in 0 W/m2
01:39 59.7 °F 58.6 °F 29.8 in Calm     96% 0 in 0 W/m2
01:44 59.7 °F 58.6 °F 29.8 in Calm   1 mph 96% 0 in 0 W/m2
01:49 59.7 °F 58.6 °F 29.8 in Calm     96% 0 in 0 W/m2
01:54 59.7 °F 58.6 °F 29.8 in Calm     96% 0 in 0 W/m2
01:59 59.7 °F 58.6 °F 29.8 in Calm     96% 0 in 0 W/m2
02:04 59.5 °F 58.5 °F 29.8 in Calm     96% 0 in 0 W/m2
02:09 59.5 °F 58.5 °F 29.8 in Calm     96% 0 in 0 W/m2
02:14 59.5 °F 58.5 °F 29.8 in Calm     96% 0 in 0 W/m2
02:19 59.4 °F 58.3 °F 29.8 in Calm     96% 0 in 0 W/m2
02:24 59.4 °F 58.3 °F 29.8 in Calm     96% 0 in 0 W/m2
02:29 59.4 °F 58.3 °F 29.8 in Calm     96% 0 in 0 W/m2
02:34 59.2 °F 58.1 °F 29.8 in Calm     96% 0 in 0 W/m2
02:39 59.2 °F 58.1 °F 29.8 in Calm     96% 0 in 0 W/m2
02:44 59.2 °F 58.1 °F 29.8 in Calm     96% 0 in 0 W/m2
02:49 59.2 °F 58.1 °F 29.8 in SSW 2 mph 2 mph 96% 0 in 0 W/m2
02:54 59.2 °F 58.1 °F 29.8 in Calm     96% 0 in 0 W/m2
02:59 59.2 °F 58.1 °F 29.8 in Calm   1 mph 96% 0 in 0 W/m2
03:04 59.2 °F 58.1 °F 29.8 in Calm     96% 0 in 0 W/m2
03:09 59 °F 57.9 °F 29.8 in Calm     96% 0 in 0 W/m2
03:14 58.8 °F 57.7 °F 29.8 in Calm     96% 0 in 0 W/m2
03:19 58.8 °F 57.7 °F 29.8 in Calm     96% 0 in 0 W/m2
03:24 58.6 °F 57.6 °F 29.8 in Calm     96% 0 in 0 W/m2
03:29 58.6 °F 57.6 °F 29.8 in Calm     96% 0 in 0 W/m2
03:34 58.6 °F 57.7 °F 29.8 in Calm     97% 0 in 0 W/m2
03:39 58.5 °F 57.4 °F 29.8 in Calm     96% 0 in 0 W/m2
03:44 58.5 °F 57.4 °F 29.8 in Calm     96% 0 in 0 W/m2
03:49 58.5 °F 57.4 °F 29.8 in Calm     96% 0 in 0 W/m2
03:54 58.5 °F 57.4 °F 29.8 in Calm     96% 0 in 0 W/m2
03:59 58.5 °F 57.4 °F 29.8 in Calm     96% 0 in 0 W/m2
04:04 58.3 °F 57.4 °F 29.8 in Calm     97% 0 in 0 W/m2
04:09 58.3 °F 57.4 °F 29.8 in Calm     97% 0 in 0 W/m2
04:14 58.1 °F 57.2 °F 29.8 in Calm     97% 0 in 0 W/m2
04:19 57.9 °F 56.8 °F 29.8 in Calm     96% 0 in 0 W/m2
04:24 57.9 °F 56.8 °F 29.8 in Calm     96% 0 in 0 W/m2
04:29 57.9 °F 57 °F 29.8 in Calm     97% 0 in 0 W/m2
04:34 57.9 °F 57 °F 29.8 in Calm     97% 0 in 0 W/m2
04:39 57.7 °F 56.8 °F 29.8 in Calm     97% 0 in 0 W/m2
04:44 57.7 °F 56.8 °F 29.8 in Calm     97% 0 in 0 W/m2
04:49 57.7 °F 56.8 °F 29.8 in Calm     97% 0 in 0 W/m2
04:54 57.7 °F 56.8 °F 29.8 in Calm     97% 0 in 0 W/m2
04:59 57.7 °F 56.8 °F 29.8 in Calm     97% 0 in 0 W/m2
05:04 57.7 °F 56.8 °F 29.8 in Calm     97% 0 in 0 W/m2
05:09 57.7 °F 56.8 °F 29.8 in ESE 2 mph 2 mph 97% 0 in 0 W/m2
05:14 57.7 °F 56.8 °F 29.8 in Calm     97% 0 in 0 W/m2
05:19 57.6 °F 56.7 °F 29.8 in Calm     97% 0 in 0 W/m2
05:24 57.6 °F 56.7 °F 29.8 in Calm     97% 0 in 0 W/m2
05:29 57.6 °F 56.7 °F 29.8 in Calm     97% 0 in 0 W/m2
05:35 57.4 °F 56.5 °F 29.8 in Calm     97% 0 in 0 W/m2
05:40 57.4 °F 56.5 °F 29.8 in Calm     97% 0 in 0 W/m2
05:45 57.2 °F 56.3 °F 29.8 in Calm     97% 0 in 0 W/m2
05:50 57.2 °F 56.3 °F 29.8 in Calm     97% 0 in 0 W/m2
05:55 57 °F 56.1 °F 29.8 in Calm     97% 0 in 0 W/m2
06:00 57 °F 56.1 °F 29.8 in Calm     97% 0 in 0 W/m2
06:05 57.2 °F 56.3 °F 29.8 in Calm     97% 0 in 5 W/m2
06:10 57 °F 56.1 °F 29.8 in Calm     97% 0 in 7 W/m2
06:15 57 °F 56.1 °F 29.8 in Calm     97% 0 in 11 W/m2
06:20 56.8 °F 55.9 °F 29.8 in Calm     97% 0 in 12 W/m2
06:25 56.8 °F 55.9 °F 29.8 in Calm     97% 0 in 16 W/m2
06:30 56.8 °F 55.9 °F 29.8 in Calm     97% 0 in 14 W/m2
06:35 57 °F 56.1 °F 29.8 in Calm     97% 0 in 23 W/m2
06:40 57.2 °F 56.3 °F 29.8 in Calm     97% 0 in 25 W/m2
06:45 57.4 °F 56.5 °F 29.8 in Calm     97% 0 in 32 W/m2
06:50 57.4 °F 56.5 °F 29.8 in Calm     97% 0 in 30 W/m2
06:55 57.6 °F 56.7 °F 29.8 in Calm     97% 0 in 46 W/m2
07:00 57.7 °F 56.8 °F 29.8 in Calm     97% 0 in 49 W/m2
07:05 57.7 °F 56.8 °F 29.8 in Calm     97% 0 in 58 W/m2
07:10 57.9 °F 57 °F 29.8 in Calm     97% 0 in 62 W/m2
07:15 58.1 °F 57.2 °F 29.8 in Calm     97% 0 in 60 W/m2
07:20 58.3 °F 57.4 °F 29.8 in Calm     97% 0 in 62 W/m2
07:25 58.3 °F 57.4 °F 29.8 in Calm     97% 0 in 83 W/m2
07:30 58.5 °F 57.6 °F 29.8 in Calm     97% 0 in 76 W/m2
07:35 58.5 °F 57.6 °F 29.8 in Calm   1 mph 97% 0 in 84 W/m2
07:40 58.5 °F 57.6 °F 29.8 in Calm     97% 0 in 100 W/m2
07:45 58.6 °F 57.7 °F 29.8 in Calm   1 mph 97% 0 in 104 W/m2
07:50 58.6 °F 57.7 °F 29.8 in Calm     97% 0 in 97 W/m2
07:55 58.8 °F 57.9 °F 29.8 in Calm     97% 0 in 130 W/m2
08:00 59.2 °F 58.3 °F 29.8 in Calm     97% 0 in 172 W/m2
08:05 59.2 °F 58.3 °F 29.8 in Calm     97% 0 in 123 W/m2
08:10 59.5 °F 58.6 °F 29.8 in Calm   1 mph 97% 0 in 162 W/m2
08:15 59.7 °F 58.8 °F 29.8 in Calm     97% 0 in 158 W/m2
08:20 59.9 °F 59 °F 29.8 in Calm   1 mph 97% 0 in 105 W/m2
Juneau County Weather
Compliments of Weather Underground - 2 mb